D/T METAR WX W/DIR W/SPE G/SPE TEMP DEWP
5/06/20 06:01 EGUN 050501Z AUTO 27012KT 9999 FEW038 BKN050 10/10 A2932 RMK AO2 SLP932 $ W (270°) 13.8mph 10°C 10°C
5/06/20 04:56 EGUN 050356Z AUTO 27013KT 9999 BKN050 10/10 A2934 RMK AO2 SLP939 T00980098 . W (270°) 15.0mph 9.8°C 9.8°C
5/06/20 04:41 EGUN 050341Z AUTO 26010KT 9999 BKN050 10/10 A2935 RMK AO2 SLP942 $ W (260°) 11.5mph 10°C 10°C
5/06/20 03:56 EGUN 050256Z AUTO 25009KT 9999 SCT050 OVC065 10/10 A2936 RMK AO2 DZE0155RAB03E21 SLP945 P0000 60000 T01040104 57026 . WSW (250°) 10.4mph 10.4°C 10.4°C
5/06/20 03:26 EGUN 050226Z AUTO 24007KT 9999 FEW025 SCT036 SCT048 BKN060 11/11 A2937 RMK AO2 DZE0155RAB03E21 SLP949 $ WSW (240°) 8.1mph 11°C 11°C
5/06/20 03:21 EGUN 050221Z AUTO 24007KT 9999 FEW026 BKN036 BKN047 OVC060 11/11 A2937 RMK AO2 DZE0155RAB03E21 SLP949 $ WSW (240°) 8.1mph 11°C 11°C
5/06/20 02:05 EGUN 050105Z AUTO 23007KT 9999 -RA SCT032 BKN049 OVC080 11/11 A2941 RMK AO2 RAB05 SLP962 $ -RA SW (230°) 8.1mph 11°C 11°C
5/06/20 01:25 EGUN 050025Z AUTO 23007KT 9999 BKN055 BKN065 11/11 A2942 RMK AO2 RAB15E25 SLP966 $ SW (230°) 8.1mph 11°C 11°C
5/06/20 01:15 EGUN 050015Z AUTO 24007KT 9999 -RA OVC060 11/11 A2943 RMK AO2 RAB15 SLP969 $ -RA WSW (240°) 8.1mph 11°C 11°C
4/06/20 23:56 EGUN 042256Z AUTO 23008KT 9999 SCT150 10/10 A2945 RMK AO2 RAE04 SLP976 P0000 T01020102 . SW (230°) 9.2mph 10.2°C 10.2°C
4/06/20 23:09 EGUN 042209Z AUTO 23006KT 9999 FEW028 FEW034 SCT041 BKN060 BKN090 11/11 A2947 RMK AO2 RAE04 SLP983 $ SW (230°) 6.9mph 11°C 11°C
4/06/20 22:43 EGUN 042143Z AUTO 22006KT 9999 -RA BKN033 11/11 A2949 RMK AO2 RAB43 SLP989 $ -RA SW (220°) 6.9mph 11°C 11°C
4/06/20 21:56 EGUN 042056Z AUTO 20006KT 9999 OVC041 11/11 A2950 RMK AO2 SLP993 T01080108 57008 . SSW (200°) 6.9mph 10.8°C 10.8°C
4/06/20 21:26 EGUN 042026Z AUTO 20004KT 9999 SCT038 BKN047 OVC100 11/11 A2951 RMK AO2 SLP996 $ SSW (200°) 4.6mph 11°C 11°C
4/06/20 20:56 EGUN 041956Z AUTO 24004KT 9999 FEW045 BKN110 11/10 A2951 RMK AO2 SLP996 T01140100 . WSW (240°) 4.6mph 11.4°C 10°C
4/06/20 20:36 EGUN 041936Z AUTO 24006KT 9999 SCT045 BKN110 12/09 A2951 RMK AO2 SLP996 $ WSW (240°) 6.9mph 12°C 9°C
4/06/20 19:56 EGUN 041856Z AUTO 25006KT 9999 OVC060 12/09 A2952 RMK AO2 SLP000 T01210091 . WSW (250°) 6.9mph 12.1°C 9.1°C
4/06/20 19:11 EGUN 041811Z 25008KT 9999 SCT050 12/09 A2953 RMK SLP003 $ WSW (250°) 9.2mph 12°C 9°C
4/06/20 17:56 EGUN 041656Z AUTO 29006KT 9999 FEW050 OVC070 12/08 A2954 RMK AO2 RAE02DZB02E04RAB04E17RAB42E51 SLP006 P0000 T01200081 . WNW (290°) 6.9mph 12°C 8.1°C
4/06/20 17:42 EGUN 041642Z AUTO 28008KT 9999 -RA FEW050 BKN070 12/08 A2954 RMK AO2 RAE02DZB02E04RAB04E17RAB42 SLP006 $ -RA W (280°) 9.2mph 12°C 8°C
4/06/20 17:17 EGUN 041617Z AUTO 32008KT 9999 FEW050 12/08 A2955 RMK AO2 RAE02DZB02E04RAB04E17 SLP010 $ NW (320°) 9.2mph 12°C 8°C
4/06/20 16:47 EGUN 041547Z AUTO 29009KT 9999 -RA FEW027 BKN033 BKN047 BKN060 13/06 A2955 RMK AO2 RAB47 SLP010 $ -RA WNW (290°) 10.4mph 13°C 6°C
4/06/20 15:56 EGUN 041456Z AUTO 32008KT 9999 BKN034 OVC046 13/06 A2956 RMK AO2 RAE02 SLP013 P0000 60000 T01310057 57008 . NW (320°) 9.2mph 13.1°C 5.7°C
4/06/20 15:02 EGUN 041402Z AUTO 33010KT 9999 OVC043 13/06 A2957 RMK AO2 RAE02 SLP016 $ NNW (330°) 11.5mph 13°C 6°C
4/06/20 13:56 EGUN 041256Z AUTO 34011G17KT 9999 SCT038 BKN047 BKN060 15/05 A2957 RMK AO2 SLP016 T01460054 . NNW (340°) 12.7mph 19.6mph 14.6°C 5.4°C
4/06/20 13:36 EGUN 041236Z AUTO 31011KT 9999 FEW036 SCT047 BKN065 15/06 A2957 RMK AO2 SLP016 $ NW (310°) 12.7mph 15°C 6°C
4/06/20 13:06 EGUN 041206Z AUTO 35010KT 9999 BKN037 OVC050 14/06 A2958 RMK AO2 SLP020 $ N (350°) 11.5mph 14°C 6°C
4/06/20 12:31 EGUN 041131Z AUTO 34011KT 9999 SCT030 SCT035 SCT046 BKN130 BKN200 15/07 A2959 RMK AO2 SLP023 $ NNW (340°) 12.7mph 15°C 7°C
4/06/20 12:21 EGUN 041121Z AUTO 33011KT 9999 SCT030 BKN037 BKN130 14/07 A2959 RMK AO2 SLP023 $ NNW (330°) 12.7mph 14°C 7°C
4/06/20 11:31 EGUN 041031Z AUTO 32009G16KT 9999 SCT025 BKN130 BKN150 13/08 A2961 RMK AO2 SLP030 $ NW (320°) 10.4mph 18.4mph 13°C 8°C
4/06/20 11:16 EGUN 041016Z AUTO 33011KT 9999 SCT024 SCT031 BKN190 13/09 A2961 RMK AO2 SLP030 $ NNW (330°) 12.7mph 13°C 9°C
4/06/20 10:46 EGUN 040946Z AUTO 34011KT 9999 SCT021 BKN028 BKN140 12/09 A2961 RMK AO2 CIG 028V150 SLP030 $ NNW (340°) 12.7mph 12°C 9°C
4/06/20 09:56 EGUN 040856Z AUTO 33013KT 9999 FEW018 FEW027 SCT130 11/11 A2962 RMK AO2 SLP033 60000 T01090106 57006 . NNW (330°) 15.0mph 10.9°C 10.6°C
4/06/20 09:26 EGUN 040826Z AUTO 33012KT 9999 SCT018 SCT023 BKN140 11/11 A2962 RMK AO2 SLP033 $ NNW (330°) 13.8mph 11°C 11°C
4/06/20 08:56 EGUN 040756Z AUTO 32010KT 9999 BKN018 OVC025 11/11 A2962 RMK AO2 SLP033 T01140114 . NW (320°) 11.5mph 11.4°C 11.4°C
4/06/20 08:36 EGUN 040736Z AUTO 34009KT 9999 BKN018 BKN024 BKN031 11/11 A2962 RMK AO2 CIG 018V032 BKN018 V FEW SLP033 $ NNW (340°) 10.4mph 11°C 11°C
4/06/20 08:16 EGUN 040716Z AUTO 35008KT 9999 FEW021 BKN036 BKN200 11/11 A2963 RMK AO2 SLP037 $ N (350°) 9.2mph 11°C 11°C
4/06/20 07:34 EGUN 040634Z AUTO 35008KT 9999 FEW019 BKN037 10/10 A2963 RMK AO2 RAE34 SLP037 $ N (350°) 9.2mph 10°C 10°C
4/06/20 06:56 EGUN 040556Z AUTO 35010KT 9999 -RA FEW013 BKN043 11/11 A2964 RMK AO2 RAE09DZB09E19RAB41E42DZB42E43RAB43 SLP040 P0000 60000 T01060106 10113 20099 55006 . -RA N (350°) 11.5mph 10.6°C 10.6°C
4/06/20 06:41 EGUN 040541Z AUTO 34008KT 9999 -RA FEW013 BKN047 11/11 A2963 RMK AO2 RAE09DZB09E19RAB41 SLP037 $ -RA NNW (340°) 9.2mph 11°C 11°C
4/06/20 06:19 EGUN 040519Z AUTO 34007KT 9999 SCT024 SCT037 BKN048 11/11 A2963 RMK AO2 RAE09DZB09E19 SLP037 $ NNW (340°) 8.1mph 11°C 11°C
4/06/20 05:40 EGUN 040440Z AUTO 33009KT 9999 -RA FEW007 OVC011 10/10 A2964 RMK AO2 RAB0359E11DZB11E14RAB29 CIG 006 RWY11 SLP040 $ -RA NNW (330°) 10.4mph 10°C 10°C
4/06/20 05:14 EGUN 040414Z AUTO 33009KT 9999 OVC008 10/10 A2964 RMK AO2 RAB0359E11DZB11E14 CIG 006 RWY11 SLP040 $ NNW (330°) 10.4mph 10°C 10°C
4/06/20 03:56 EGUN 040256Z AUTO 33010KT 9999 OVC011 10/10 A2965 RMK AO2 SLP044 T01030103 57019 . NNW (330°) 11.5mph 10.3°C 10.3°C
4/06/20 03:26 EGUN 040226Z AUTO 33009KT 9999 BKN010 OVC016 11/11 A2966 RMK AO2 SLP047 $ NNW (330°) 10.4mph 11°C 11°C
4/06/20 03:06 EGUN 040206Z AUTO 33007KT 9999 BKN009 OVC016 11/11 A2967 RMK AO2 SLP050 $ NNW (330°) 8.1mph 11°C 11°C
4/06/20 02:41 EGUN 040141Z AUTO 34008KT 9999 SCT010 BKN017 OVC024 11/11 A2968 RMK AO2 CIG 009V017 CIG 009 RWY11 SLP054 $ NNW (340°) 9.2mph 11°C 11°C
4/06/20 02:01 EGUN 040101Z AUTO 33007KT 9999 BKN010 OVC021 11/11 A2969 RMK AO2 CIG 010V012 BKN V OVC SLP057 $ NNW (330°) 8.1mph 11°C 11°C
4/06/20 01:36 EGUN 040036Z AUTO 34008G16KT 9999 BKN012 OVC018 11/11 A2970 RMK AO2 CIG 006 RWY11 SLP060 $ NNW (340°) 9.2mph 18.4mph 11°C 11°C
4/06/20 01:16 EGUN 040016Z AUTO 35010KT 9999 OVC010 11/11 A2970 RMK AO2 CIG 009 RWY11 SLP060 $ N (350°) 11.5mph 11°C 11°C
4/06/20 00:36 EGUN 032336Z AUTO 36011KT 9999 BKN009 OVC013 11/11 A2972 RMK AO2 CIG 008V010 BKN V OVC SLP067 $ N (360°) 12.7mph 11°C 11°C
4/06/20 00:16 EGUN 032316Z AUTO 36008KT 9999 BKN007 OVC011 11/11 A2972 RMK AO2 CIG 007V012 BKN V SCT CIG 006 RWY11 SLP067 $ N (360°) 9.2mph 11°C 11°C
3/06/20 23:41 EGUN 032241Z AUTO 01009KT 9999 FEW007 OVC012 11/11 A2972 RMK AO2 RAE02DZB02E03RAB03E41 CIG 006 RWY11 SLP067 $ N (10°) 10.4mph 11°C 11°C
3/06/20 23:16 EGUN 032216Z AUTO 36010KT 9999 -RA SCT007 OVC012 12/12 A2973 RMK AO2 RAE02DZB02E03RAB03 CIG 008V014 CIG 007 RWY11 SLP071 $ -RA N (360°) 11.5mph 12°C 12°C
3/06/20 22:49 EGUN 032149Z AUTO 36011KT 9999 -RA BKN009 OVC017 12/12 A2974 RMK AO2 RAB19E29DZB29E33RAB44 SLP074 $ -RA N (360°) 12.7mph 12°C 12°C
3/06/20 22:19 EGUN 032119Z AUTO 36008KT 9999 -RA OVC013 12/12 A2975 RMK AO2 RAB19 CIG 010 RWY11 SLP077 $ -RA N (360°) 9.2mph 12°C 12°C
3/06/20 21:36 EGUN 032036Z AUTO 36011KT 9999 BKN012 BKN032 13/13 A2975 RMK AO2 CIG 012V034 BKN012 V SCT SLP077 $ N (360°) 12.7mph 13°C 13°C
3/06/20 20:56 EGUN 031956Z AUTO 01012G19KT 9999 FEW016 OVC038 13/12 A2975 RMK AO2 SLP077 T01320124 . N (10°) 13.8mph 21.9mph 13.2°C 12.4°C
3/06/20 19:56 EGUN 031856Z AUTO 01013KT 9999 SCT019 BKN036 BKN090 14/12 A2975 RMK AO2 SLP077 T01400119 . N (10°) 15.0mph 14°C 11.9°C
3/06/20 18:56 EGUN 031756Z 02011G17KT 9999 SCT023 BKN090 15/12 A2975 RMK AO2A SLP077 T01450116 10180 20145 56005 . NNE (20°) 12.7mph 19.6mph 14.5°C 11.6°C
3/06/20 18:11 EGUN 031711Z AUTO 01011KT 9999 SCT022 SCT028 BKN080 15/11 A2975 RMK AO2 SLP077 $ N (10°) 12.7mph 15°C 11°C
3/06/20 16:56 EGUN 031556Z AUTO 02011KT 9999 FEW024 FEW200 16/11 A2976 RMK AO2 SLP081 T01560114 . NNE (20°) 12.7mph 15.6°C 11.4°C
3/06/20 16:31 EGUN 031531Z AUTO 02012G17KT 9999 SCT025 SCT100 BKN200 16/12 A2976 RMK AO2 SLP081 $ NNE (20°) 13.8mph 19.6mph 16°C 12°C
3/06/20 15:56 EGUN 031456Z 02013G17KT 9999 SCT028 SCT210 17/11 A2977 RMK AO2A SLP084 T01660109 55002 . NNE (20°) 15.0mph 19.6mph 16.6°C 10.9°C
3/06/20 14:56 EGUN 031356Z AUTO 02011G17KT 9999 FEW028 FEW070 SCT120 SCT150 BKN210 17/11 A2977 RMK AO2 SLP084 T01710107 . NNE (20°) 12.7mph 19.6mph 17.1°C 10.7°C
3/06/20 13:56 EGUN 031256Z 03011KT 9999 FEW070 SCT130 18/10 A2977 RMK AO2A SLP084 T01770101 . NNE (30°) 12.7mph 17.7°C 10.1°C
3/06/20 12:56 EGUN 031156Z 03009KT 9999 FEW075 SCT190 18/11 A2977 RMK AO2A SLP084 60000 T01770106 10177 20129 57008 . NNE (30°) 10.4mph 17.7°C 10.6°C
3/06/20 11:56 EGUN 031056Z 01008KT 9999 FEW130 SCT180 17/12 A2978 RMK AO2A SLP087 T01690124 . N (10°) 9.2mph 16.9°C 12.4°C
3/06/20 10:56 EGUN 030956Z 03010KT 9999 FEW080 FEW110 SCT140 SCT170 BKN190 16/12 A2978 RMK AO2A SLP087 T01590117 . NNE (30°) 11.5mph 15.9°C 11.7°C
3/06/20 09:56 EGUN 030856Z 01006KT 9999 FEW140 SCT200 15/13 A2980 RMK AO2A SLP094 60000 T01510129 56003 . N (10°) 6.9mph 15.1°C 12.9°C
3/06/20 08:56 EGUN 030756Z 35005KT 9999 FEW060 BKN080 15/12 A2980 RMK AO2A SLP094 T01460116 . N (350°) 5.8mph 14.6°C 11.6°C
3/06/20 07:56 EGUN 030656Z AUTO 36003KT 9999 CLR 14/12 A2980 RMK AO2 SLP094 T01420117 . N (360°) 3.5mph 14.2°C 11.7°C
3/06/20 06:56 EGUN 030556Z AUTO 00000KT 9999 BKN130 13/10 A2980 RMK AO2 SLP094 T01280103 10131 20101 57009 . N (0°) 12.8°C 10.3°C
3/06/20 05:56 EGUN 030456Z AUTO 00000KT 9999 FEW120 12/11 A2981 RMK AO2 SLP098 T01180105 . N (0°) 11.8°C 10.5°C
3/06/20 04:56 EGUN 030356Z AUTO 01003KT 9999 BKN130 BKN150 10/10 A2982 RMK AO2 SLP101 T01040104 . N (10°) 3.5mph 10.4°C 10.4°C
3/06/20 03:56 EGUN 030256Z AUTO 00000KT 9999 BKN150 11/10 A2983 RMK AO2 SLP104 T01090098 57019 . N (0°) 10.9°C 9.8°C
3/06/20 02:56 EGUN 030156Z AUTO 00000KT 9999 BKN140 12/09 A2985 RMK AO2 SLP111 T01170094 . N (0°) 11.7°C 9.4°C
3/06/20 01:56 EGUN 030056Z AUTO 00000KT 9999 BKN140 11/10 A2987 RMK AO2 SLP118 T01100101 . N (0°) 11°C 10.1°C
3/06/20 00:56 EGUN 022356Z AUTO 00000KT 9999 SCT150 12/09 A2989 RMK AO2 SLP125 60000 T01210091 10216 20119 402380083 57017 . N (0°) 12.1°C 9.1°C
2/06/20 23:56 EGUN 022256Z AUTO 00000KT 9999 SCT160 13/08 A2990 RMK AO2 SLP128 T01300081 . N (0°) 13°C 8.1°C
2/06/20 22:56 EGUN 022156Z AUTO 06003KT 9999 SCT160 BKN190 14/08 A2992 RMK AO2 RAB18E21RAB26E34 SLP135 P0000 T01410078 . ENE (60°) 3.5mph 14.1°C 7.8°C
2/06/20 22:34 EGUN 022134Z AUTO 00000KT 9999 SCT190 15/07 A2992 RMK AO2 RAB18E21RAB26E34 SLP135 $ N (0°) 15°C 7°C
2/06/20 22:21 EGUN 022121Z AUTO 00000KT 9999 CLR 15/07 A2993 RMK AO2 RAB18E21 SLP138 $ N (0°) 15°C 7°C
2/06/20 20:56 EGUN 021956Z AUTO 01003KT 9999 FEW190 18/07 A2995 RMK AO2 SLP145 T01780066 . N (10°) 3.5mph 17.8°C 6.6°C
2/06/20 19:56 EGUN 021856Z AUTO 02007KT 9999 CLR 21/08 A2996 RMK AO2 SLP148 T02050082 . NNE (20°) 8.1mph 20.5°C 8.2°C
2/06/20 18:56 EGUN 021756Z AUTO 01007KT 9999 CLR 22/08 A2997 RMK AO2 SLP152 T02160078 10238 20216 57017 . N (10°) 8.1mph 21.6°C 7.8°C
2/06/20 17:56 EGUN 021656Z AUTO 34010KT 9999 CLR 23/08 A2999 RMK AO2 SLP159 T02300079 . NNW (340°) 11.5mph 23°C 7.9°C
2/06/20 16:56 EGUN 021556Z AUTO 35006KT 9999 CLR 23/09 A3000 RMK AO2 SLP162 T02330086 . N (350°) 6.9mph 23.3°C 8.6°C
2/06/20 15:56 EGUN 021456Z AUTO 31004KT 9999 CLR 23/10 A3002 RMK AO2 SLP169 T02260097 57016 . NW (310°) 4.6mph 22.6°C 9.7°C
2/06/20 14:56 EGUN 021356Z AUTO 32011G16KT 9999 FEW200 23/10 A3004 RMK AO2 SLP176 T02280102 . NW (320°) 12.7mph 18.4mph 22.8°C 10.2°C
2/06/20 13:56 EGUN 021256Z AUTO 33011KT 9999 CLR 23/11 A3005 RMK AO2 SLP179 T02270105 . NNW (330°) 12.7mph 22.7°C 10.5°C
2/06/20 12:56 EGUN 021156Z AUTO 35008KT 9999 CLR 23/10 A3006 RMK AO2 SLP182 T02330100 10233 20113 57019 . N (350°) 9.2mph 23.3°C 10°C
2/06/20 11:56 EGUN 021056Z AUTO 01005KT 9999 CLR 22/11 A3008 RMK AO2 SLP189 T02220107 . N (10°) 5.8mph 22.2°C 10.7°C
2/06/20 10:56 EGUN 020956Z AUTO 32005KT 9999 FEW200 20/12 A3010 RMK AO2 SLP196 T02040118 . NW (320°) 5.8mph 20.4°C 11.8°C
2/06/20 09:56 EGUN 020856Z AUTO 31008KT 9999 CLR 19/14 A3012 RMK AO2 SLP203 T01890135 57010 . NW (310°) 9.2mph 18.9°C 13.5°C
2/06/20 08:56 EGUN 020756Z AUTO 34005KT 9999 CLR 16/14 A3014 RMK AO2 SLP209 T01620138 . NNW (340°) 5.8mph 16.2°C 13.8°C